sensor_id;sensor_type;location;lat;lon;timestamp;P1;durP1;ratioP1;P2;durP2;ratioP2
76380;SDS011;65202;52.520;10.528;2023-08-20T00:01:34;28.98;;;25.02;;
76380;SDS011;65202;52.520;10.528;2023-08-20T00:04:01;30.63;;;26.13;;
76380;SDS011;65202;52.520;10.528;2023-08-20T00:06:30;33.35;;;27.23;;
76380;SDS011;65202;52.520;10.528;2023-08-20T00:08:58;36.15;;;26.15;;
76380;SDS011;65202;52.520;10.528;2023-08-20T00:11:26;32.70;;;26.95;;
76380;SDS011;65202;52.520;10.528;2023-08-20T00:13:54;32.10;;;26.00;;
76380;SDS011;65202;52.520;10.528;2023-08-20T00:16:21;32.67;;;25.95;;
76380;SDS011;65202;52.520;10.528;2023-08-20T00:18:48;33.63;;;25.90;;
76380;SDS011;65202;52.520;10.528;2023-08-20T00:21:16;29.20;;;23.15;;
76380;SDS011;65202;52.520;10.528;2023-08-20T00:23:44;32.97;;;23.48;;
76380;SDS011;65202;52.520;10.528;2023-08-20T00:26:11;33.35;;;25.00;;
76380;SDS011;65202;52.520;10.528;2023-08-20T00:28:39;32.03;;;25.08;;
76380;SDS011;65202;52.520;10.528;2023-08-20T00:31:06;32.78;;;24.83;;
76380;SDS011;65202;52.520;10.528;2023-08-20T00:33:34;30.30;;;24.25;;
76380;SDS011;65202;52.520;10.528;2023-08-20T00:36:01;32.05;;;24.83;;
76380;SDS011;65202;52.520;10.528;2023-08-20T00:38:28;28.25;;;22.30;;
76380;SDS011;65202;52.520;10.528;2023-08-20T00:40:55;34.75;;;23.60;;
76380;SDS011;65202;52.520;10.528;2023-08-20T00:43:23;28.65;;;23.23;;
76380;SDS011;65202;52.520;10.528;2023-08-20T00:45:50;30.20;;;22.40;;
76380;SDS011;65202;52.520;10.528;2023-08-20T00:48:17;32.13;;;22.27;;
76380;SDS011;65202;52.520;10.528;2023-08-20T00:50:45;28.00;;;21.35;;
76380;SDS011;65202;52.520;10.528;2023-08-20T00:53:13;27.35;;;21.30;;
76380;SDS011;65202;52.520;10.528;2023-08-20T00:55:42;29.90;;;20.90;;
76380;SDS011;65202;52.520;10.528;2023-08-20T00:58:10;32.33;;;22.50;;
76380;SDS011;65202;52.520;10.528;2023-08-20T01:00:39;35.00;;;21.90;;
76380;SDS011;65202;52.520;10.528;2023-08-20T01:03:06;27.00;;;22.08;;
76380;SDS011;65202;52.520;10.528;2023-08-20T01:05:39;30.10;;;21.30;;
76380;SDS011;65202;52.520;10.528;2023-08-20T01:08:26;27.35;;;19.95;;
76380;SDS011;65202;52.520;10.528;2023-08-20T01:11:10;25.13;;;20.77;;
76380;SDS011;65202;52.520;10.528;2023-08-20T01:13:47;27.17;;;20.90;;
76380;SDS011;65202;52.520;10.528;2023-08-20T01:16:14;27.05;;;21.00;;
76380;SDS011;65202;52.520;10.528;2023-08-20T01:18:42;27.42;;;20.63;;
76380;SDS011;65202;52.520;10.528;2023-08-20T01:21:13;26.63;;;20.42;;
76380;SDS011;65202;52.520;10.528;2023-08-20T01:27:38;30.73;;;21.20;;
76380;SDS011;65202;52.520;10.528;2023-08-20T01:30:17;25.50;;;20.10;;
76380;SDS011;65202;52.520;10.528;2023-08-20T01:32:49;30.85;;;21.48;;
76380;SDS011;65202;52.520;10.528;2023-08-20T01:35:18;28.60;;;20.50;;
76380;SDS011;65202;52.520;10.528;2023-08-20T01:37:46;26.80;;;20.75;;
76380;SDS011;65202;52.520;10.528;2023-08-20T01:40:13;29.33;;;21.00;;
76380;SDS011;65202;52.520;10.528;2023-08-20T01:42:40;29.60;;;22.30;;
76380;SDS011;65202;52.520;10.528;2023-08-20T01:45:07;27.00;;;20.63;;
76380;SDS011;65202;52.520;10.528;2023-08-20T01:47:36;29.25;;;21.45;;
76380;SDS011;65202;52.520;10.528;2023-08-20T01:50:04;32.83;;;22.08;;
76380;SDS011;65202;52.520;10.528;2023-08-20T01:52:33;26.10;;;21.77;;
76380;SDS011;65202;52.520;10.528;2023-08-20T01:55:01;27.52;;;21.30;;
76380;SDS011;65202;52.520;10.528;2023-08-20T01:57:29;32.58;;;22.80;;
76380;SDS011;65202;52.520;10.528;2023-08-20T01:59:56;31.40;;;23.50;;
76380;SDS011;65202;52.520;10.528;2023-08-20T02:02:24;29.63;;;22.50;;
76380;SDS011;65202;52.520;10.528;2023-08-20T02:04:52;32.80;;;22.88;;
76380;SDS011;65202;52.520;10.528;2023-08-20T02:07:19;31.50;;;21.95;;
76380;SDS011;65202;52.520;10.528;2023-08-20T02:09:46;29.10;;;22.23;;
76380;SDS011;65202;52.520;10.528;2023-08-20T02:12:14;30.92;;;21.83;;
76380;SDS011;65202;52.520;10.528;2023-08-20T02:14:41;28.23;;;21.85;;
76380;SDS011;65202;52.520;10.528;2023-08-20T02:17:08;29.25;;;22.23;;
76380;SDS011;65202;52.520;10.528;2023-08-20T02:19:36;27.70;;;21.17;;
76380;SDS011;65202;52.520;10.528;2023-08-20T02:22:03;30.00;;;21.42;;
76380;SDS011;65202;52.520;10.528;2023-08-20T02:24:31;27.42;;;21.65;;
76380;SDS011;65202;52.520;10.528;2023-08-20T02:26:58;30.02;;;21.42;;
76380;SDS011;65202;52.520;10.528;2023-08-20T02:29:25;28.30;;;20.48;;
76380;SDS011;65202;52.520;10.528;2023-08-20T02:31:52;31.88;;;22.92;;
76380;SDS011;65202;52.520;10.528;2023-08-20T02:34:20;31.52;;;22.33;;
76380;SDS011;65202;52.520;10.528;2023-08-20T02:36:47;29.00;;;21.38;;
76380;SDS011;65202;52.520;10.528;2023-08-20T02:39:15;32.67;;;22.85;;
76380;SDS011;65202;52.520;10.528;2023-08-20T02:41:43;32.72;;;21.50;;
76380;SDS011;65202;52.520;10.528;2023-08-20T02:44:11;27.13;;;22.27;;
76380;SDS011;65202;52.520;10.528;2023-08-20T02:46:39;35.90;;;21.88;;
76380;SDS011;65202;52.520;10.528;2023-08-20T02:49:07;30.95;;;24.00;;
76380;SDS011;65202;52.520;10.528;2023-08-20T02:51:34;31.80;;;22.60;;
76380;SDS011;65202;52.520;10.528;2023-08-20T02:54:01;26.23;;;21.52;;
76380;SDS011;65202;52.520;10.528;2023-08-20T02:56:29;37.08;;;24.48;;
76380;SDS011;65202;52.520;10.528;2023-08-20T02:58:56;28.08;;;22.08;;
76380;SDS011;65202;52.520;10.528;2023-08-20T03:01:24;29.38;;;21.10;;
76380;SDS011;65202;52.520;10.528;2023-08-20T03:03:53;31.85;;;21.90;;
76380;SDS011;65202;52.520;10.528;2023-08-20T03:06:21;31.27;;;21.08;;
76380;SDS011;65202;52.520;10.528;2023-08-20T03:08:52;29.38;;;20.23;;
76380;SDS011;65202;52.520;10.528;2023-08-20T03:11:19;25.55;;;19.58;;
76380;SDS011;65202;52.520;10.528;2023-08-20T03:13:46;28.73;;;21.15;;
76380;SDS011;65202;52.520;10.528;2023-08-20T03:16:13;28.45;;;19.92;;
76380;SDS011;65202;52.520;10.528;2023-08-20T03:18:41;28.92;;;20.70;;
76380;SDS011;65202;52.520;10.528;2023-08-20T03:21:08;27.75;;;19.20;;
76380;SDS011;65202;52.520;10.528;2023-08-20T03:23:35;30.42;;;18.85;;
76380;SDS011;65202;52.520;10.528;2023-08-20T03:26:02;26.58;;;19.05;;
76380;SDS011;65202;52.520;10.528;2023-08-20T03:28:30;22.55;;;18.02;;
76380;SDS011;65202;52.520;10.528;2023-08-20T03:31:00;24.55;;;18.42;;
76380;SDS011;65202;52.520;10.528;2023-08-20T03:33:28;24.95;;;17.80;;
76380;SDS011;65202;52.520;10.528;2023-08-20T03:35:55;26.40;;;18.05;;
76380;SDS011;65202;52.520;10.528;2023-08-20T03:38:26;23.80;;;19.67;;
76380;SDS011;65202;52.520;10.528;2023-08-20T03:40:54;21.45;;;17.77;;
76380;SDS011;65202;52.520;10.528;2023-08-20T03:43:22;21.52;;;18.13;;
76380;SDS011;65202;52.520;10.528;2023-08-20T03:45:50;22.95;;;18.60;;
76380;SDS011;65202;52.520;10.528;2023-08-20T03:48:18;23.13;;;17.70;;
76380;SDS011;65202;52.520;10.528;2023-08-20T03:50:47;21.52;;;16.55;;
76380;SDS011;65202;52.520;10.528;2023-08-20T03:53:14;20.85;;;17.35;;
76380;SDS011;65202;52.520;10.528;2023-08-20T03:55:41;18.77;;;15.98;;
76380;SDS011;65202;52.520;10.528;2023-08-20T03:58:15;19.38;;;15.82;;
76380;SDS011;65202;52.520;10.528;2023-08-20T04:00:43;20.38;;;16.90;;
76380;SDS011;65202;52.520;10.528;2023-08-20T04:03:11;20.58;;;14.57;;
76380;SDS011;65202;52.520;10.528;2023-08-20T04:05:38;20.88;;;14.98;;
76380;SDS011;65202;52.520;10.528;2023-08-20T04:08:06;20.15;;;14.13;;
76380;SDS011;65202;52.520;10.528;2023-08-20T04:10:34;16.52;;;13.43;;
76380;SDS011;65202;52.520;10.528;2023-08-20T04:13:01;16.92;;;12.82;;
76380;SDS011;65202;52.520;10.528;2023-08-20T04:15:28;14.50;;;11.52;;
76380;SDS011;65202;52.520;10.528;2023-08-20T04:17:56;14.85;;;11.27;;
76380;SDS011;65202;52.520;10.528;2023-08-20T04:20:23;15.43;;;11.35;;
76380;SDS011;65202;52.520;10.528;2023-08-20T04:22:50;14.20;;;11.00;;
76380;SDS011;65202;52.520;10.528;2023-08-20T04:25:18;12.02;;;10.73;;
76380;SDS011;65202;52.520;10.528;2023-08-20T04:27:45;13.23;;;11.10;;
76380;SDS011;65202;52.520;10.528;2023-08-20T04:30:12;11.90;;;10.65;;
76380;SDS011;65202;52.520;10.528;2023-08-20T04:32:40;12.02;;;10.48;;
76380;SDS011;65202;52.520;10.528;2023-08-20T04:35:07;11.48;;;10.35;;
76380;SDS011;65202;52.520;10.528;2023-08-20T04:37:35;12.25;;;10.88;;
76380;SDS011;65202;52.520;10.528;2023-08-20T04:40:03;9.40;;;8.40;;
76380;SDS011;65202;52.520;10.528;2023-08-20T04:42:34;12.57;;;8.63;;
76380;SDS011;65202;52.520;10.528;2023-08-20T04:45:02;10.82;;;9.75;;
76380;SDS011;65202;52.520;10.528;2023-08-20T04:47:29;13.55;;;11.48;;
76380;SDS011;65202;52.520;10.528;2023-08-20T04:49:57;15.60;;;12.68;;
76380;SDS011;65202;52.520;10.528;2023-08-20T04:52:24;15.52;;;12.20;;
76380;SDS011;65202;52.520;10.528;2023-08-20T04:54:51;15.65;;;12.95;;
76380;SDS011;65202;52.520;10.528;2023-08-20T04:57:18;18.67;;;14.50;;
76380;SDS011;65202;52.520;10.528;2023-08-20T04:59:46;19.92;;;14.93;;
76380;SDS011;65202;52.520;10.528;2023-08-20T05:02:13;19.65;;;15.82;;
76380;SDS011;65202;52.520;10.528;2023-08-20T05:04:41;24.15;;;16.40;;
76380;SDS011;65202;52.520;10.528;2023-08-20T05:07:08;43.22;;;31.67;;
76380;SDS011;65202;52.520;10.528;2023-08-20T05:09:35;21.42;;;17.23;;
76380;SDS011;65202;52.520;10.528;2023-08-20T05:12:03;25.30;;;18.02;;
76380;SDS011;65202;52.520;10.528;2023-08-20T05:14:30;23.17;;;17.85;;
76380;SDS011;65202;52.520;10.528;2023-08-20T05:16:58;22.48;;;17.05;;
76380;SDS011;65202;52.520;10.528;2023-08-20T05:19:25;27.88;;;18.25;;
76380;SDS011;65202;52.520;10.528;2023-08-20T05:21:53;26.45;;;19.33;;
76380;SDS011;65202;52.520;10.528;2023-08-20T05:24:23;23.50;;;19.77;;
76380;SDS011;65202;52.520;10.528;2023-08-20T05:29:38;25.00;;;19.95;;
76380;SDS011;65202;52.520;10.528;2023-08-20T05:32:06;30.15;;;21.92;;
76380;SDS011;65202;52.520;10.528;2023-08-20T05:34:34;27.23;;;21.63;;
76380;SDS011;65202;52.520;10.528;2023-08-20T05:37:01;24.30;;;20.33;;
76380;SDS011;65202;52.520;10.528;2023-08-20T05:39:30;37.00;;;21.85;;
76380;SDS011;65202;52.520;10.528;2023-08-20T05:42:05;24.17;;;19.88;;
76380;SDS011;65202;52.520;10.528;2023-08-20T05:44:32;27.10;;;22.05;;
76380;SDS011;65202;52.520;10.528;2023-08-20T05:46:59;31.17;;;22.90;;
76380;SDS011;65202;52.520;10.528;2023-08-20T05:49:27;25.13;;;21.48;;
76380;SDS011;65202;52.520;10.528;2023-08-20T05:51:57;25.83;;;20.77;;
76380;SDS011;65202;52.520;10.528;2023-08-20T05:54:24;27.60;;;20.90;;
76380;SDS011;65202;52.520;10.528;2023-08-20T05:56:51;26.75;;;20.25;;
76380;SDS011;65202;52.520;10.528;2023-08-20T05:59:19;29.58;;;21.08;;
76380;SDS011;65202;52.520;10.528;2023-08-20T06:01:46;24.63;;;19.65;;
76380;SDS011;65202;52.520;10.528;2023-08-20T06:04:13;27.35;;;19.30;;
76380;SDS011;65202;52.520;10.528;2023-08-20T06:06:40;24.15;;;18.38;;
76380;SDS011;65202;52.520;10.528;2023-08-20T06:09:08;27.55;;;19.55;;
76380;SDS011;65202;52.520;10.528;2023-08-20T06:11:36;24.80;;;18.77;;
76380;SDS011;65202;52.520;10.528;2023-08-20T06:14:03;24.77;;;17.95;;
76380;SDS011;65202;52.520;10.528;2023-08-20T06:16:30;26.33;;;15.45;;
76380;SDS011;65202;52.520;10.528;2023-08-20T06:18:58;20.05;;;14.63;;
76380;SDS011;65202;52.520;10.528;2023-08-20T06:21:29;21.63;;;13.93;;
76380;SDS011;65202;52.520;10.528;2023-08-20T06:23:56;20.80;;;13.55;;
76380;SDS011;65202;52.520;10.528;2023-08-20T06:26:23;21.95;;;15.95;;
76380;SDS011;65202;52.520;10.528;2023-08-20T06:28:50;19.00;;;11.95;;
76380;SDS011;65202;52.520;10.528;2023-08-20T06:31:18;16.15;;;10.30;;
76380;SDS011;65202;52.520;10.528;2023-08-20T06:33:46;15.10;;;9.88;;
76380;SDS011;65202;52.520;10.528;2023-08-20T06:36:14;18.05;;;10.48;;
76380;SDS011;65202;52.520;10.528;2023-08-20T06:38:44;15.65;;;10.70;;
76380;SDS011;65202;52.520;10.528;2023-08-20T06:41:11;15.13;;;10.55;;
76380;SDS011;65202;52.520;10.528;2023-08-20T06:43:38;17.10;;;10.52;;
76380;SDS011;65202;52.520;10.528;2023-08-20T06:46:05;19.45;;;12.10;;
76380;SDS011;65202;52.520;10.528;2023-08-20T06:48:33;16.63;;;12.18;;
76380;SDS011;65202;52.520;10.528;2023-08-20T06:51:13;16.15;;;11.45;;
76380;SDS011;65202;52.520;10.528;2023-08-20T06:53:44;17.88;;;10.32;;
76380;SDS011;65202;52.520;10.528;2023-08-20T06:56:11;17.40;;;9.80;;
76380;SDS011;65202;52.520;10.528;2023-08-20T06:58:39;14.93;;;9.27;;
76380;SDS011;65202;52.520;10.528;2023-08-20T07:01:08;14.10;;;8.55;;
76380;SDS011;65202;52.520;10.528;2023-08-20T07:03:39;13.52;;;7.93;;
76380;SDS011;65202;52.520;10.528;2023-08-20T07:06:08;12.15;;;7.72;;
76380;SDS011;65202;52.520;10.528;2023-08-20T07:08:37;14.60;;;7.75;;
76380;SDS011;65202;52.520;10.528;2023-08-20T07:11:06;15.95;;;7.85;;
76380;SDS011;65202;52.520;10.528;2023-08-20T07:13:34;14.73;;;7.63;;
76380;SDS011;65202;52.520;10.528;2023-08-20T07:16:02;13.25;;;7.30;;
76380;SDS011;65202;52.520;10.528;2023-08-20T07:18:29;13.43;;;7.57;;
76380;SDS011;65202;52.520;10.528;2023-08-20T07:20:56;12.63;;;7.07;;
76380;SDS011;65202;52.520;10.528;2023-08-20T07:23:24;12.65;;;6.60;;
76380;SDS011;65202;52.520;10.528;2023-08-20T07:26:03;13.85;;;6.53;;
76380;SDS011;65202;52.520;10.528;2023-08-20T07:28:35;12.77;;;6.10;;
76380;SDS011;65202;52.520;10.528;2023-08-20T07:31:25;13.95;;;8.10;;
76380;SDS011;65202;52.520;10.528;2023-08-20T07:34:00;12.25;;;7.65;;
76380;SDS011;65202;52.520;10.528;2023-08-20T07:36:32;16.17;;;9.60;;
76380;SDS011;65202;52.520;10.528;2023-08-20T07:38:59;14.30;;;9.32;;
76380;SDS011;65202;52.520;10.528;2023-08-20T07:41:29;13.93;;;8.23;;
76380;SDS011;65202;52.520;10.528;2023-08-20T07:43:57;12.75;;;8.60;;
76380;SDS011;65202;52.520;10.528;2023-08-20T07:46:24;13.13;;;8.70;;
76380;SDS011;65202;52.520;10.528;2023-08-20T07:48:51;11.45;;;7.13;;
76380;SDS011;65202;52.520;10.528;2023-08-20T07:51:19;11.10;;;7.00;;
76380;SDS011;65202;52.520;10.528;2023-08-20T07:53:46;9.73;;;5.05;;
76380;SDS011;65202;52.520;10.528;2023-08-20T07:56:13;10.32;;;5.10;;
76380;SDS011;65202;52.520;10.528;2023-08-20T07:58:40;9.80;;;5.22;;
76380;SDS011;65202;52.520;10.528;2023-08-20T08:01:08;10.20;;;5.40;;
76380;SDS011;65202;52.520;10.528;2023-08-20T08:03:35;8.75;;;5.18;;
76380;SDS011;65202;52.520;10.528;2023-08-20T08:06:02;8.38;;;4.90;;
76380;SDS011;65202;52.520;10.528;2023-08-20T08:08:30;11.85;;;5.35;;
76380;SDS011;65202;52.520;10.528;2023-08-20T08:10:57;10.07;;;5.47;;
76380;SDS011;65202;52.520;10.528;2023-08-20T08:13:25;10.50;;;5.97;;
76380;SDS011;65202;52.520;10.528;2023-08-20T08:15:52;9.52;;;5.45;;
76380;SDS011;65202;52.520;10.528;2023-08-20T08:18:19;9.50;;;5.50;;
76380;SDS011;65202;52.520;10.528;2023-08-20T08:20:47;6.85;;;5.05;;
76380;SDS011;65202;52.520;10.528;2023-08-20T08:23:15;7.55;;;4.97;;
76380;SDS011;65202;52.520;10.528;2023-08-20T08:25:47;15.50;;;5.30;;
76380;SDS011;65202;52.520;10.528;2023-08-20T08:28:15;10.18;;;5.80;;
76380;SDS011;65202;52.520;10.528;2023-08-20T08:30:42;5.70;;;4.70;;
76380;SDS011;65202;52.520;10.528;2023-08-20T08:33:09;5.80;;;4.60;;
76380;SDS011;65202;52.520;10.528;2023-08-20T08:35:36;6.35;;;4.53;;
76380;SDS011;65202;52.520;10.528;2023-08-20T08:38:04;7.72;;;4.47;;
76380;SDS011;65202;52.520;10.528;2023-08-20T08:40:31;9.18;;;4.45;;
76380;SDS011;65202;52.520;10.528;2023-08-20T08:43:00;5.65;;;4.35;;
76380;SDS011;65202;52.520;10.528;2023-08-20T08:45:29;7.15;;;4.78;;
76380;SDS011;65202;52.520;10.528;2023-08-20T08:47:59;8.55;;;4.20;;
76380;SDS011;65202;52.520;10.528;2023-08-20T08:50:29;8.95;;;4.05;;
76380;SDS011;65202;52.520;10.528;2023-08-20T08:52:59;6.57;;;3.58;;
76380;SDS011;65202;52.520;10.528;2023-08-20T08:55:26;5.32;;;3.22;;
76380;SDS011;65202;52.520;10.528;2023-08-20T08:57:53;5.40;;;3.75;;
76380;SDS011;65202;52.520;10.528;2023-08-20T09:00:21;5.78;;;3.00;;
76380;SDS011;65202;52.520;10.528;2023-08-20T09:02:48;5.65;;;2.80;;
76380;SDS011;65202;52.520;10.528;2023-08-20T09:05:15;8.55;;;3.00;;
76380;SDS011;65202;52.520;10.528;2023-08-20T09:07:43;6.32;;;2.83;;
76380;SDS011;65202;52.520;10.528;2023-08-20T09:10:11;9.20;;;3.08;;
76380;SDS011;65202;52.520;10.528;2023-08-20T09:12:39;5.65;;;3.10;;
76380;SDS011;65202;52.520;10.528;2023-08-20T09:15:10;9.27;;;3.10;;
76380;SDS011;65202;52.520;10.528;2023-08-20T09:17:41;9.32;;;3.10;;
76380;SDS011;65202;52.520;10.528;2023-08-20T09:20:09;6.88;;;3.05;;
76380;SDS011;65202;52.520;10.528;2023-08-20T09:22:37;8.05;;;2.83;;
76380;SDS011;65202;52.520;10.528;2023-08-20T09:25:04;5.90;;;2.88;;
76380;SDS011;65202;52.520;10.528;2023-08-20T09:27:38;7.82;;;3.15;;
76380;SDS011;65202;52.520;10.528;2023-08-20T09:30:09;5.65;;;3.30;;
76380;SDS011;65202;52.520;10.528;2023-08-20T09:32:46;6.30;;;3.30;;
76380;SDS011;65202;52.520;10.528;2023-08-20T09:35:31;5.93;;;3.30;;
76380;SDS011;65202;52.520;10.528;2023-08-20T09:37:59;5.55;;;2.83;;
76380;SDS011;65202;52.520;10.528;2023-08-20T09:40:28;6.47;;;2.97;;
76380;SDS011;65202;52.520;10.528;2023-08-20T09:42:56;6.63;;;2.88;;
76380;SDS011;65202;52.520;10.528;2023-08-20T09:45:24;5.72;;;3.28;;
76380;SDS011;65202;52.520;10.528;2023-08-20T09:47:54;7.00;;;3.47;;
76380;SDS011;65202;52.520;10.528;2023-08-20T09:50:23;8.73;;;3.70;;
76380;SDS011;65202;52.520;10.528;2023-08-20T09:52:57;7.25;;;3.30;;
76380;SDS011;65202;52.520;10.528;2023-08-20T09:55:32;7.53;;;3.22;;
76380;SDS011;65202;52.520;10.528;2023-08-20T09:58:02;5.38;;;2.97;;
76380;SDS011;65202;52.520;10.528;2023-08-20T10:00:31;7.57;;;3.47;;
76380;SDS011;65202;52.520;10.528;2023-08-20T10:02:59;7.28;;;3.42;;
76380;SDS011;65202;52.520;10.528;2023-08-20T10:05:27;4.93;;;3.00;;
76380;SDS011;65202;52.520;10.528;2023-08-20T10:07:55;9.70;;;3.30;;
76380;SDS011;65202;52.520;10.528;2023-08-20T10:10:22;5.78;;;3.22;;
76380;SDS011;65202;52.520;10.528;2023-08-20T10:12:51;6.57;;;2.90;;
76380;SDS011;65202;52.520;10.528;2023-08-20T10:15:18;9.88;;;5.25;;
76380;SDS011;65202;52.520;10.528;2023-08-20T10:17:45;8.98;;;4.15;;
76380;SDS011;65202;52.520;10.528;2023-08-20T10:20:14;5.18;;;2.83;;
76380;SDS011;65202;52.520;10.528;2023-08-20T10:22:44;7.97;;;3.60;;
76380;SDS011;65202;52.520;10.528;2023-08-20T10:25:40;6.40;;;3.15;;
76380;SDS011;65202;52.520;10.528;2023-08-20T10:28:27;4.80;;;2.85;;
76380;SDS011;65202;52.520;10.528;2023-08-20T10:31:11;6.47;;;2.80;;
76380;SDS011;65202;52.520;10.528;2023-08-20T10:33:48;6.30;;;3.10;;
76380;SDS011;65202;52.520;10.528;2023-08-20T10:36:22;6.28;;;3.35;;
76380;SDS011;65202;52.520;10.528;2023-08-20T10:38:55;6.70;;;3.13;;
76380;SDS011;65202;52.520;10.528;2023-08-20T10:41:25;6.05;;;2.53;;
76380;SDS011;65202;52.520;10.528;2023-08-20T10:43:57;4.60;;;2.80;;
76380;SDS011;65202;52.520;10.528;2023-08-20T10:46:28;4.50;;;2.63;;
76380;SDS011;65202;52.520;10.528;2023-08-20T10:49:02;7.35;;;3.00;;
76380;SDS011;65202;52.520;10.528;2023-08-20T10:51:33;6.55;;;2.85;;
76380;SDS011;65202;52.520;10.528;2023-08-20T10:54:05;6.88;;;2.78;;
76380;SDS011;65202;52.520;10.528;2023-08-20T10:56:41;6.05;;;3.03;;
76380;SDS011;65202;52.520;10.528;2023-08-20T10:59:15;5.47;;;2.95;;
76380;SDS011;65202;52.520;10.528;2023-08-20T11:01:48;6.53;;;3.20;;
76380;SDS011;65202;52.520;10.528;2023-08-20T11:04:18;6.80;;;2.90;;
76380;SDS011;65202;52.520;10.528;2023-08-20T11:06:55;4.43;;;2.75;;
76380;SDS011;65202;52.520;10.528;2023-08-20T11:09:24;3.83;;;2.40;;
76380;SDS011;65202;52.520;10.528;2023-08-20T11:11:54;5.50;;;2.45;;
76380;SDS011;65202;52.520;10.528;2023-08-20T11:14:22;11.07;;;3.10;;
76380;SDS011;65202;52.520;10.528;2023-08-20T11:16:50;6.88;;;3.00;;
76380;SDS011;65202;52.520;10.528;2023-08-20T11:19:19;6.65;;;2.70;;
76380;SDS011;65202;52.520;10.528;2023-08-20T11:21:48;7.10;;;3.05;;
76380;SDS011;65202;52.520;10.528;2023-08-20T11:24:16;8.05;;;3.00;;
76380;SDS011;65202;52.520;10.528;2023-08-20T11:26:47;5.13;;;2.78;;
76380;SDS011;65202;52.520;10.528;2023-08-20T11:29:15;3.50;;;2.53;;
76380;SDS011;65202;52.520;10.528;2023-08-20T11:31:48;5.43;;;2.30;;
76380;SDS011;65202;52.520;10.528;2023-08-20T11:34:19;4.38;;;2.53;;
76380;SDS011;65202;52.520;10.528;2023-08-20T11:36:46;8.70;;;6.43;;
76380;SDS011;65202;52.520;10.528;2023-08-20T11:39:15;6.57;;;3.58;;
76380;SDS011;65202;52.520;10.528;2023-08-20T11:41:43;5.53;;;2.70;;
76380;SDS011;65202;52.520;10.528;2023-08-20T11:44:11;5.70;;;2.65;;
76380;SDS011;65202;52.520;10.528;2023-08-20T11:46:47;4.72;;;2.58;;
76380;SDS011;65202;52.520;10.528;2023-08-20T11:49:14;6.13;;;2.90;;
76380;SDS011;65202;52.520;10.528;2023-08-20T11:51:43;4.57;;;2.60;;
76380;SDS011;65202;52.520;10.528;2023-08-20T11:54:15;8.30;;;2.80;;
76380;SDS011;65202;52.520;10.528;2023-08-20T11:56:45;3.60;;;2.58;;
76380;SDS011;65202;52.520;10.528;2023-08-20T11:59:18;6.82;;;2.70;;
76380;SDS011;65202;52.520;10.528;2023-08-20T12:01:57;5.40;;;2.72;;
76380;SDS011;65202;52.520;10.528;2023-08-20T12:04:32;5.85;;;2.85;;
76380;SDS011;65202;52.520;10.528;2023-08-20T12:09:32;8.90;;;2.67;;
76380;SDS011;65202;52.520;10.528;2023-08-20T12:12:01;5.10;;;2.53;;
76380;SDS011;65202;52.520;10.528;2023-08-20T12:14:29;5.50;;;2.80;;
76380;SDS011;65202;52.520;10.528;2023-08-20T12:16:57;4.57;;;2.75;;
76380;SDS011;65202;52.520;10.528;2023-08-20T12:19:25;5.70;;;2.72;;
76380;SDS011;65202;52.520;10.528;2023-08-20T12:21:52;4.70;;;2.80;;
76380;SDS011;65202;52.520;10.528;2023-08-20T12:24:19;12.52;;;3.25;;
76380;SDS011;65202;52.520;10.528;2023-08-20T12:26:47;5.40;;;2.70;;
76380;SDS011;65202;52.520;10.528;2023-08-20T12:29:15;4.72;;;2.80;;
76380;SDS011;65202;52.520;10.528;2023-08-20T12:31:43;8.02;;;3.05;;
76380;SDS011;65202;52.520;10.528;2023-08-20T12:34:10;5.38;;;2.80;;
76380;SDS011;65202;52.520;10.528;2023-08-20T12:36:37;4.47;;;2.80;;
76380;SDS011;65202;52.520;10.528;2023-08-20T12:39:05;7.80;;;2.60;;
76380;SDS011;65202;52.520;10.528;2023-08-20T12:41:32;6.38;;;2.47;;
76380;SDS011;65202;52.520;10.528;2023-08-20T12:43:59;6.13;;;4.72;;
76380;SDS011;65202;52.520;10.528;2023-08-20T12:46:27;7.32;;;4.22;;
76380;SDS011;65202;52.520;10.528;2023-08-20T12:48:54;5.70;;;3.38;;
76380;SDS011;65202;52.520;10.528;2023-08-20T12:51:21;12.43;;;3.60;;
76380;SDS011;65202;52.520;10.528;2023-08-20T12:53:49;4.10;;;2.63;;
76380;SDS011;65202;52.520;10.528;2023-08-20T12:56:16;4.20;;;2.70;;
76380;SDS011;65202;52.520;10.528;2023-08-20T12:58:43;8.30;;;2.47;;
76380;SDS011;65202;52.520;10.528;2023-08-20T13:01:11;5.18;;;2.55;;
76380;SDS011;65202;52.520;10.528;2023-08-20T13:03:38;3.75;;;2.40;;
76380;SDS011;65202;52.520;10.528;2023-08-20T13:06:06;3.97;;;2.25;;
76380;SDS011;65202;52.520;10.528;2023-08-20T13:08:34;7.95;;;2.53;;
76380;SDS011;65202;52.520;10.528;2023-08-20T13:11:01;3.35;;;2.58;;
76380;SDS011;65202;52.520;10.528;2023-08-20T13:13:33;5.03;;;2.83;;
76380;SDS011;65202;52.520;10.528;2023-08-20T13:16:01;3.55;;;2.25;;
76380;SDS011;65202;52.520;10.528;2023-08-20T13:18:29;3.53;;;2.28;;
76380;SDS011;65202;52.520;10.528;2023-08-20T13:20:57;4.65;;;2.42;;
76380;SDS011;65202;52.520;10.528;2023-08-20T13:23:24;4.45;;;2.20;;
76380;SDS011;65202;52.520;10.528;2023-08-20T13:25:52;4.63;;;2.17;;
76380;SDS011;65202;52.520;10.528;2023-08-20T13:28:19;6.55;;;2.30;;
76380;SDS011;65202;52.520;10.528;2023-08-20T13:30:46;5.53;;;2.30;;
76380;SDS011;65202;52.520;10.528;2023-08-20T13:33:14;3.67;;;2.35;;
76380;SDS011;65202;52.520;10.528;2023-08-20T13:35:41;5.20;;;2.03;;
76380;SDS011;65202;52.520;10.528;2023-08-20T13:38:09;4.88;;;2.00;;
76380;SDS011;65202;52.520;10.528;2023-08-20T13:40:36;6.13;;;4.07;;
76380;SDS011;65202;52.520;10.528;2023-08-20T13:43:03;5.28;;;2.30;;
76380;SDS011;65202;52.520;10.528;2023-08-20T13:45:31;5.78;;;2.50;;
76380;SDS011;65202;52.520;10.528;2023-08-20T13:47:59;4.57;;;2.13;;
76380;SDS011;65202;52.520;10.528;2023-08-20T13:50:26;2.35;;;2.00;;
76380;SDS011;65202;52.520;10.528;2023-08-20T13:52:53;6.35;;;2.50;;
76380;SDS011;65202;52.520;10.528;2023-08-20T13:55:22;3.97;;;2.15;;
76380;SDS011;65202;52.520;10.528;2023-08-20T13:57:49;4.53;;;2.30;;
76380;SDS011;65202;52.520;10.528;2023-08-20T14:00:17;4.15;;;2.20;;
76380;SDS011;65202;52.520;10.528;2023-08-20T14:02:44;4.50;;;2.38;;
76380;SDS011;65202;52.520;10.528;2023-08-20T14:05:11;4.05;;;2.30;;
76380;SDS011;65202;52.520;10.528;2023-08-20T14:07:38;4.88;;;2.58;;
76380;SDS011;65202;52.520;10.528;2023-08-20T14:10:06;6.13;;;2.50;;
76380;SDS011;65202;52.520;10.528;2023-08-20T14:12:34;5.15;;;2.40;;
76380;SDS011;65202;52.520;10.528;2023-08-20T14:15:05;5.65;;;2.80;;
76380;SDS011;65202;52.520;10.528;2023-08-20T14:17:33;5.28;;;2.92;;
76380;SDS011;65202;52.520;10.528;2023-08-20T14:20:01;5.85;;;3.00;;
76380;SDS011;65202;52.520;10.528;2023-08-20T14:22:28;5.57;;;3.15;;
76380;SDS011;65202;52.520;10.528;2023-08-20T14:24:56;8.30;;;5.43;;
76380;SDS011;65202;52.520;10.528;2023-08-20T14:27:23;6.95;;;2.58;;
76380;SDS011;65202;52.520;10.528;2023-08-20T14:29:50;5.45;;;2.70;;
76380;SDS011;65202;52.520;10.528;2023-08-20T14:32:17;5.40;;;2.60;;
76380;SDS011;65202;52.520;10.528;2023-08-20T14:34:45;6.03;;;2.75;;
76380;SDS011;65202;52.520;10.528;2023-08-20T14:37:13;4.85;;;2.85;;
76380;SDS011;65202;52.520;10.528;2023-08-20T14:39:40;3.10;;;2.28;;